createdAt,value
2022-12-03T00:01:17.276Z,48.10
2022-12-03T00:03:44.709Z,45.63
2022-12-03T00:06:12.472Z,42.58
2022-12-03T00:08:39.866Z,44.30
2022-12-03T00:11:07.460Z,39.63
2022-12-03T00:13:34.862Z,42.55
2022-12-03T00:16:02.518Z,42.15
2022-12-03T00:18:29.995Z,48.42
2022-12-03T00:20:57.577Z,42.83
2022-12-03T00:23:24.938Z,40.10
2022-12-03T00:25:52.614Z,41.42
2022-12-03T00:28:20.010Z,42.47
2022-12-03T00:30:47.691Z,39.80
2022-12-03T00:33:15.025Z,46.45
2022-12-03T00:35:42.630Z,42.13
2022-12-03T00:38:09.992Z,42.03
2022-12-03T00:40:37.592Z,38.70
2022-12-03T00:43:04.954Z,45.60
2022-12-03T00:49:14.840Z,40.20
2022-12-03T00:51:42.497Z,49.65
2022-12-03T00:54:09.827Z,42.47
2022-12-03T00:56:37.447Z,49.35
2022-12-03T00:59:04.777Z,39.63
2022-12-03T01:01:34.653Z,41.15
2022-12-03T01:04:02.052Z,50.05
2022-12-03T01:06:29.690Z,48.65
2022-12-03T01:08:57.047Z,41.67
2022-12-03T01:11:24.714Z,45.28
2022-12-03T01:13:52.067Z,37.50
2022-12-03T01:16:19.828Z,36.25
2022-12-03T01:18:47.197Z,44.08
2022-12-03T01:21:14.761Z,39.30
2022-12-03T01:23:42.089Z,46.17
2022-12-03T01:26:09.755Z,46.90
2022-12-03T01:28:37.082Z,46.40
2022-12-03T01:31:04.790Z,42.33
2022-12-03T01:33:32.300Z,39.38
2022-12-03T01:36:18.347Z,43.03
2022-12-03T01:39:04.361Z,43.90
2022-12-03T01:41:40.951Z,38.72
2022-12-03T01:44:15.122Z,34.75
2022-12-03T01:46:42.987Z,49.60
2022-12-03T01:49:20.677Z,46.58
2022-12-03T01:51:49.583Z,47.03
2022-12-03T01:54:19.132Z,41.22
2022-12-03T02:00:25.726Z,42.83
2022-12-03T02:02:54.718Z,55.67
2022-12-03T02:05:26.621Z,52.72
2022-12-03T02:07:54.617Z,45.15
2022-12-03T02:10:23.939Z,47.03
2022-12-03T02:12:57.093Z,45.22
2022-12-03T02:15:24.639Z,40.80
2022-12-03T02:17:52.359Z,37.63
2022-12-03T02:20:19.898Z,38.85
2022-12-03T02:22:47.479Z,44.13
2022-12-03T02:25:16.456Z,36.17
2022-12-03T02:27:44.500Z,39.67
2022-12-03T02:30:12.729Z,42.88
2022-12-03T02:32:40.432Z,35.38
2022-12-03T02:35:13.311Z,38.22
2022-12-03T02:37:41.266Z,44.38
2022-12-03T02:40:10.474Z,41.20
2022-12-03T02:42:38.716Z,42.83
2022-12-03T02:45:10.911Z,41.47
2022-12-03T02:47:43.464Z,48.65
2022-12-03T02:50:12.295Z,45.72
2022-12-03T02:52:40.593Z,40.35
2022-12-03T02:55:08.520Z,44.97
2022-12-03T02:57:37.549Z,44.05
2022-12-03T03:00:06.321Z,46.97
2022-12-03T03:02:34.204Z,48.80
2022-12-03T03:05:01.657Z,33.72
2022-12-03T03:07:29.522Z,42.22
2022-12-03T03:09:57.798Z,38.65
2022-12-03T03:12:25.681Z,42.38
2022-12-03T03:14:53.330Z,43.92
2022-12-03T03:17:21.409Z,35.88
2022-12-03T03:20:05.140Z,37.90
2022-12-03T03:22:33.391Z,46.80
2022-12-03T03:25:01.083Z,42.67
2022-12-03T03:27:29.019Z,38.95
2022-12-03T03:29:58.010Z,42.65
2022-12-03T03:32:26.564Z,34.58
2022-12-03T03:34:54.340Z,35.55
2022-12-03T03:37:22.285Z,39.88
2022-12-03T03:39:49.667Z,39.40
2022-12-03T03:42:17.540Z,39.70
2022-12-03T03:44:45.119Z,40.75
2022-12-03T03:47:13.073Z,36.47
2022-12-03T03:49:40.739Z,34.70
2022-12-03T03:52:08.594Z,40.28
2022-12-03T03:54:36.489Z,44.28
2022-12-03T03:57:04.541Z,39.90
2022-12-03T03:59:31.876Z,41.47
2022-12-03T04:01:59.523Z,35.28
2022-12-03T04:04:27.303Z,36.33
2022-12-03T04:06:54.921Z,39.58
2022-12-03T04:09:22.290Z,41.38
2022-12-03T04:11:49.928Z,35.58
2022-12-03T04:14:17.258Z,37.78
2022-12-03T04:16:44.957Z,41.20
2022-12-03T04:19:12.420Z,42.38
2022-12-03T04:21:40.044Z,55.85
2022-12-03T04:24:08.198Z,47.05
2022-12-03T04:26:36.023Z,45.22
2022-12-03T04:29:03.635Z,47.10
2022-12-03T04:31:31.232Z,46.78
2022-12-03T04:33:58.569Z,47.20
2022-12-03T04:36:26.219Z,48.55
2022-12-03T04:38:53.571Z,52.90
2022-12-03T04:41:21.181Z,50.25
2022-12-03T04:43:48.487Z,52.25
2022-12-03T04:46:16.248Z,59.03
2022-12-03T04:48:43.630Z,46.78
2022-12-03T04:51:11.204Z,56.33
2022-12-03T04:53:43.249Z,49.30
2022-12-03T04:56:13.640Z,47.13
2022-12-03T04:58:40.990Z,43.65
2022-12-03T05:01:08.630Z,53.88
2022-12-03T05:03:35.985Z,41.28
2022-12-03T05:06:03.612Z,45.75
2022-12-03T05:08:30.974Z,51.88
2022-12-03T05:10:58.639Z,46.17
2022-12-03T05:13:25.983Z,42.63
2022-12-03T05:15:53.639Z,51.95
2022-12-03T05:18:20.978Z,53.67
2022-12-03T05:20:53.283Z,49.35
2022-12-03T05:23:21.246Z,45.65
2022-12-03T05:25:48.911Z,47.85
2022-12-03T05:28:16.241Z,66.95
2022-12-03T05:30:43.984Z,43.55
2022-12-03T05:36:26.537Z,43.10
2022-12-03T05:39:11.132Z,51.60
2022-12-03T05:41:38.814Z,52.78
2022-12-03T05:44:06.140Z,45.63
2022-12-03T05:46:33.829Z,51.28
2022-12-03T05:49:01.175Z,53.00
2022-12-03T05:51:29.008Z,54.00
2022-12-03T05:53:56.297Z,49.25
2022-12-03T05:56:23.969Z,47.72
2022-12-03T05:58:57.053Z,47.50
2022-12-03T06:01:24.734Z,47.08
2022-12-03T06:03:52.247Z,56.05
2022-12-03T06:06:19.936Z,55.50
2022-12-03T06:08:47.230Z,43.85
2022-12-03T06:11:14.828Z,50.38
2022-12-03T06:13:42.158Z,50.95
2022-12-03T06:16:09.792Z,39.67
2022-12-03T06:18:37.190Z,40.97
2022-12-03T06:21:04.948Z,46.72
2022-12-03T06:23:32.249Z,42.20
2022-12-03T06:25:59.910Z,40.15
2022-12-03T06:28:27.219Z,43.33
2022-12-03T06:30:54.927Z,140.75
2022-12-03T06:33:22.357Z,91.65
2022-12-03T06:35:49.969Z,90.70
2022-12-03T06:38:17.379Z,65.32
2022-12-03T06:40:44.999Z,52.97
2022-12-03T06:43:12.333Z,49.47
2022-12-03T06:45:43.305Z,55.78
2022-12-03T06:48:15.005Z,52.90
2022-12-03T06:50:42.653Z,50.53
2022-12-03T06:53:09.988Z,53.47
2022-12-03T06:55:37.629Z,59.55
2022-12-03T06:58:04.941Z,64.25
2022-12-03T07:00:32.756Z,56.38
2022-12-03T07:06:09.308Z,64.07
2022-12-03T07:08:36.666Z,77.78
2022-12-03T07:11:04.549Z,50.10
2022-12-03T07:13:31.848Z,74.30
2022-12-03T07:15:59.593Z,71.00
2022-12-03T07:18:26.973Z,51.55
2022-12-03T07:20:54.647Z,51.47
2022-12-03T07:23:22.042Z,58.55
2022-12-03T07:25:49.638Z,46.50
2022-12-03T07:28:16.950Z,76.53
2022-12-03T07:30:44.585Z,66.82
2022-12-03T07:33:11.897Z,55.80
2022-12-03T07:35:39.561Z,56.20
2022-12-03T07:38:06.903Z,59.45
2022-12-03T07:40:34.496Z,54.33
2022-12-03T07:43:01.886Z,77.50
2022-12-03T07:45:29.523Z,47.17
2022-12-03T07:47:56.858Z,52.92
2022-12-03T07:50:24.460Z,49.42
2022-12-03T07:52:51.775Z,56.85
2022-12-03T07:55:19.370Z,55.50
2022-12-03T07:57:46.818Z,56.15
2022-12-03T08:00:14.985Z,63.47
2022-12-03T08:02:42.415Z,55.72
2022-12-03T08:05:10.213Z,67.38
2022-12-03T08:07:37.679Z,55.47
2022-12-03T08:10:05.801Z,59.08
2022-12-03T08:12:35.508Z,57.15
2022-12-03T08:15:05.532Z,56.42
2022-12-03T08:17:32.902Z,57.47
2022-12-03T08:20:00.483Z,49.05
2022-12-03T08:22:27.845Z,51.15
2022-12-03T08:24:56.083Z,47.85
2022-12-03T08:27:23.442Z,41.25
2022-12-03T08:29:53.198Z,46.05
2022-12-03T08:32:20.687Z,52.13
2022-12-03T08:34:48.406Z,50.38
2022-12-03T08:37:16.958Z,45.13
2022-12-03T08:39:45.586Z,52.35
2022-12-03T08:42:15.985Z,55.10
2022-12-03T08:44:43.671Z,48.60
2022-12-03T08:47:15.686Z,44.88
2022-12-03T08:52:16.039Z,56.10
2022-12-03T08:54:44.061Z,50.08
2022-12-03T08:57:30.869Z,48.25
2022-12-03T09:00:18.534Z,49.00
2022-12-03T09:02:50.966Z,49.05
2022-12-03T09:05:21.352Z,45.97
2022-12-03T09:07:48.960Z,48.00
2022-12-03T09:10:16.683Z,69.75
2022-12-03T09:12:44.166Z,116.82
2022-12-03T09:15:11.859Z,46.65
2022-12-03T09:17:39.290Z,39.45
2022-12-03T09:20:07.145Z,47.95
2022-12-03T09:22:34.507Z,41.33
2022-12-03T09:25:02.130Z,44.78
2022-12-03T09:27:29.521Z,52.88
2022-12-03T09:29:57.172Z,39.33
2022-12-03T09:32:24.610Z,42.65
2022-12-03T09:34:52.590Z,36.53
2022-12-03T09:37:20.164Z,40.67
2022-12-03T09:39:48.032Z,41.65
2022-12-03T09:42:15.563Z,51.30
2022-12-03T09:44:43.541Z,43.58
2022-12-03T09:47:10.956Z,49.25
2022-12-03T09:49:38.820Z,45.90
2022-12-03T09:52:07.141Z,45.13
2022-12-03T09:54:34.807Z,52.50
2022-12-03T09:57:03.579Z,43.47
2022-12-03T09:59:32.100Z,51.97
2022-12-03T10:01:59.630Z,52.55
2022-12-03T10:04:28.084Z,49.90
2022-12-03T10:06:57.364Z,46.47
2022-12-03T10:16:29.601Z,46.00
2022-12-03T10:22:14.069Z,47.92
2022-12-03T10:24:41.791Z,50.67
2022-12-03T10:27:35.240Z,42.33
2022-12-03T10:30:04.778Z,48.35
2022-12-03T10:43:25.532Z,53.42
2022-12-03T10:46:03.479Z,46.53
2022-12-03T10:48:31.753Z,46.17
2022-12-03T10:51:02.676Z,50.75
2022-12-03T10:53:31.220Z,40.42
2022-12-03T10:56:00.362Z,54.67
2022-12-03T10:58:29.282Z,35.92
2022-12-03T11:00:58.162Z,40.70
2022-12-03T11:03:26.775Z,52.30
2022-12-03T11:05:55.530Z,56.03
2022-12-03T11:08:24.433Z,46.05
2022-12-03T11:11:03.935Z,44.78
2022-12-03T11:17:07.333Z,57.63
2022-12-03T11:19:42.249Z,49.63
2022-12-03T11:22:09.551Z,49.50
2022-12-03T11:24:38.498Z,44.50
2022-12-03T11:27:08.007Z,50.05
2022-12-03T11:29:52.017Z,47.80
2022-12-03T11:32:38.037Z,52.08
2022-12-03T11:35:11.601Z,54.25
2022-12-03T11:37:39.151Z,49.72
2022-12-03T11:40:15.978Z,52.20
2022-12-03T11:42:47.393Z,45.38
2022-12-03T11:45:33.123Z,46.67
2022-12-03T11:48:18.327Z,50.20
2022-12-03T11:50:52.993Z,57.33
2022-12-03T11:53:22.798Z,56.72
2022-12-03T11:56:04.220Z,50.45
2022-12-03T11:58:32.705Z,40.30
2022-12-03T12:01:01.516Z,52.72
2022-12-03T12:03:33.756Z,48.45
2022-12-03T12:06:12.150Z,51.00
2022-12-03T12:08:41.104Z,57.10
2022-12-03T12:11:18.517Z,93.35
2022-12-03T12:17:41.597Z,59.83
2022-12-03T12:20:11.688Z,54.90
2022-12-03T12:22:39.400Z,52.95
2022-12-03T12:25:25.209Z,54.90
2022-12-03T12:27:52.883Z,49.88
2022-12-03T12:30:20.996Z,62.95
2022-12-03T12:32:48.595Z,60.85
2022-12-03T12:35:15.889Z,55.70
2022-12-03T12:37:52.234Z,59.50
2022-12-03T12:40:25.394Z,55.05
2022-12-03T12:42:52.940Z,57.20
2022-12-03T12:45:24.406Z,56.85
2022-12-03T12:48:10.169Z,57.20
2022-12-03T12:50:37.994Z,65.00
2022-12-03T12:53:16.826Z,61.70
2022-12-03T12:55:44.208Z,66.00
2022-12-03T12:58:14.936Z,57.47
2022-12-03T13:00:42.632Z,49.05
2022-12-03T13:03:11.107Z,53.85
2022-12-03T13:05:39.587Z,60.20
2022-12-03T13:08:20.475Z,61.03
2022-12-03T13:10:48.118Z,49.40
2022-12-03T13:13:15.825Z,49.30
2022-12-03T13:15:52.139Z,52.38
2022-12-03T13:18:40.045Z,59.38
2022-12-03T13:21:27.667Z,47.05
2022-12-03T13:23:56.898Z,61.65
2022-12-03T13:26:38.641Z,57.55
2022-12-03T13:29:11.563Z,57.70
2022-12-03T13:31:43.379Z,53.47
2022-12-03T13:34:16.358Z,62.85
2022-12-03T13:36:44.669Z,56.78
2022-12-03T13:39:35.384Z,71.15
2022-12-03T13:42:14.731Z,82.78
2022-12-03T13:44:46.150Z,46.78
2022-12-03T13:47:14.978Z,69.07
2022-12-03T13:49:46.198Z,49.67
2022-12-03T13:52:15.900Z,52.15
2022-12-03T13:54:43.547Z,65.30
2022-12-03T13:57:10.907Z,58.38
2022-12-03T13:59:38.524Z,57.58
2022-12-03T14:09:01.672Z,60.67
2022-12-03T14:11:29.327Z,62.22
2022-12-03T14:13:56.697Z,55.10
2022-12-03T14:16:24.400Z,65.43
2022-12-03T14:18:51.816Z,64.47
2022-12-03T14:21:19.434Z,58.35
2022-12-03T14:23:46.809Z,46.97
2022-12-03T14:26:14.430Z,64.53
2022-12-03T14:28:41.765Z,66.93
2022-12-03T14:31:09.429Z,76.30
2022-12-03T14:33:36.738Z,69.43
2022-12-03T14:36:04.467Z,61.78
2022-12-03T14:38:31.800Z,62.78
2022-12-03T14:40:59.382Z,58.97
2022-12-03T14:43:26.762Z,63.38
2022-12-03T14:45:54.432Z,59.10
2022-12-03T14:48:21.816Z,53.92
2022-12-03T14:50:49.485Z,54.10
2022-12-03T14:53:16.852Z,51.30
2022-12-03T14:55:44.493Z,50.72
2022-12-03T14:58:11.824Z,55.97
2022-12-03T15:00:39.454Z,47.60
2022-12-03T15:03:06.828Z,49.05
2022-12-03T15:05:34.480Z,54.45
2022-12-03T15:08:01.965Z,82.68
2022-12-03T15:10:29.629Z,101.82
2022-12-03T15:12:56.957Z,78.90
2022-12-03T15:15:24.582Z,84.13
2022-12-03T15:17:51.975Z,85.72
2022-12-03T15:20:19.545Z,67.88
2022-12-03T15:22:46.856Z,60.58
2022-12-03T15:25:14.463Z,57.25
2022-12-03T15:27:41.789Z,95.43
2022-12-03T15:30:09.617Z,74.68
2022-12-03T15:32:36.916Z,69.95
2022-12-03T15:35:04.639Z,75.05
2022-12-03T15:37:31.931Z,97.68
2022-12-03T15:39:59.698Z,125.57
2022-12-03T15:42:27.043Z,125.00
2022-12-03T15:44:54.671Z,157.00
2022-12-03T15:47:22.027Z,81.07
2022-12-03T15:56:44.574Z,57.30
2022-12-03T15:59:12.187Z,61.58
2022-12-03T16:01:39.538Z,64.90
2022-12-03T16:04:07.169Z,53.67
2022-12-03T16:06:34.529Z,78.85
2022-12-03T16:09:02.130Z,53.22
2022-12-03T16:11:29.463Z,96.13
2022-12-03T16:13:57.054Z,51.20
2022-12-03T16:16:24.497Z,69.63
2022-12-03T16:18:52.116Z,52.75
2022-12-03T16:21:23.544Z,57.70
2022-12-03T16:23:54.537Z,72.90
2022-12-03T16:26:22.093Z,62.42
2022-12-03T16:28:49.724Z,64.00
2022-12-03T16:31:17.125Z,56.45
2022-12-03T16:33:45.070Z,65.47
2022-12-03T16:36:12.472Z,54.05
2022-12-03T16:38:40.052Z,57.90
2022-12-03T16:41:07.732Z,53.90
2022-12-03T16:43:35.375Z,47.15
2022-12-03T16:46:11.829Z,60.45
2022-12-03T16:48:39.564Z,58.47
2022-12-03T16:51:07.091Z,56.58
2022-12-03T16:53:34.732Z,55.92
2022-12-03T16:56:02.529Z,65.22
2022-12-03T16:58:30.143Z,60.08
2022-12-03T17:00:57.465Z,52.35
2022-12-03T17:03:30.408Z,58.67
2022-12-03T17:06:01.309Z,66.38
2022-12-03T17:11:50.878Z,67.97
2022-12-03T17:14:18.758Z,73.30
2022-12-03T17:16:46.084Z,67.70
2022-12-03T17:19:13.970Z,64.43
2022-12-03T17:21:41.366Z,81.68
2022-12-03T17:24:09.135Z,61.97
2022-12-03T17:26:36.675Z,67.97
2022-12-03T17:29:04.344Z,65.82
2022-12-03T17:31:33.724Z,65.68
2022-12-03T17:34:07.461Z,79.50
2022-12-03T17:36:34.792Z,69.05
2022-12-03T17:39:03.789Z,61.30
2022-12-03T17:41:31.131Z,68.65
2022-12-03T17:43:58.792Z,63.88
2022-12-03T17:46:26.109Z,61.15
2022-12-03T17:48:53.718Z,72.18
2022-12-03T17:51:21.073Z,57.72
2022-12-03T17:53:48.698Z,71.40
2022-12-03T17:56:16.086Z,58.35
2022-12-03T17:58:43.773Z,63.83
2022-12-03T18:01:11.073Z,66.85
2022-12-03T18:03:38.766Z,62.25
2022-12-03T18:06:06.297Z,63.30
2022-12-03T18:08:33.963Z,68.15
2022-12-03T18:11:01.302Z,59.53
2022-12-03T18:13:28.893Z,77.45
2022-12-03T18:15:56.341Z,62.22
2022-12-03T18:18:24.056Z,60.45
2022-12-03T18:20:52.640Z,71.45
2022-12-03T18:23:20.324Z,61.20
2022-12-03T18:25:47.718Z,68.20
2022-12-03T18:28:15.401Z,55.60
2022-12-03T18:30:46.204Z,66.95
2022-12-03T18:33:16.933Z,59.53
2022-12-03T18:35:44.412Z,69.00
2022-12-03T18:38:13.227Z,63.40
2022-12-03T18:40:40.915Z,78.30
2022-12-03T18:43:12.023Z,97.90
2022-12-03T18:45:39.873Z,69.05
2022-12-03T18:48:14.402Z,93.55
2022-12-03T18:50:42.521Z,95.40
2022-12-03T18:56:42.467Z,77.95
2022-12-03T18:59:10.113Z,87.32
2022-12-03T19:01:37.474Z,86.22
2022-12-03T19:04:05.182Z,75.25
2022-12-03T19:06:32.610Z,82.25
2022-12-03T19:09:00.201Z,79.47
2022-12-03T19:11:27.573Z,70.93
2022-12-03T19:13:55.323Z,67.72
2022-12-03T19:16:22.901Z,69.40
2022-12-03T19:18:50.595Z,87.45
2022-12-03T19:21:17.935Z,76.22
2022-12-03T19:24:09.843Z,81.45
2022-12-03T19:26:32.891Z,94.25
2022-12-03T19:29:00.465Z,84.75
2022-12-03T19:31:27.897Z,81.10
2022-12-03T19:33:55.617Z,76.80
2022-12-03T19:36:24.466Z,91.78
2022-12-03T19:38:56.814Z,84.80
2022-12-03T19:41:25.621Z,77.70
2022-12-03T19:43:54.410Z,83.85
2022-12-03T19:46:22.578Z,83.45
2022-12-03T19:48:50.578Z,77.07
2022-12-03T19:51:34.231Z,93.68
2022-12-03T19:54:06.447Z,83.20
2022-12-03T19:56:34.238Z,113.28
2022-12-03T19:59:02.198Z,97.65
2022-12-03T20:01:33.854Z,92.93
2022-12-03T20:04:02.393Z,93.95
2022-12-03T20:06:32.102Z,79.03
2022-12-03T20:09:01.083Z,80.63
2022-12-03T20:11:29.678Z,78.25
2022-12-03T20:13:58.470Z,90.38
2022-12-03T20:16:26.509Z,70.07
2022-12-03T20:18:58.784Z,77.18
2022-12-03T20:21:26.762Z,71.43
2022-12-03T20:23:54.415Z,71.05
2022-12-03T20:26:22.061Z,114.00
2022-12-03T20:32:22.001Z,90.82
2022-12-03T20:34:49.800Z,99.60
2022-12-03T20:37:17.454Z,113.10
2022-12-03T20:39:45.091Z,74.47
2022-12-03T20:42:12.429Z,82.18
2022-12-03T20:44:40.069Z,74.72
2022-12-03T20:47:07.395Z,72.65
2022-12-03T20:49:35.140Z,87.75
2022-12-03T20:52:04.505Z,67.25
2022-12-03T20:54:32.484Z,63.03
2022-12-03T20:56:59.921Z,67.93
2022-12-03T20:59:27.524Z,66.25
2022-12-03T21:01:54.946Z,71.65
2022-12-03T21:04:22.729Z,75.07
2022-12-03T21:06:50.116Z,77.82
2022-12-03T21:09:17.701Z,76.10
2022-12-03T21:11:45.013Z,67.80
2022-12-03T21:14:12.671Z,64.75
2022-12-03T21:17:06.609Z,78.88
2022-12-03T21:19:27.676Z,74.10
2022-12-03T21:21:55.034Z,79.03
2022-12-03T21:24:22.790Z,75.65
2022-12-03T21:26:50.196Z,77.68
2022-12-03T21:29:19.677Z,72.35
2022-12-03T21:31:47.089Z,66.53
2022-12-03T21:34:14.766Z,73.75
2022-12-03T21:36:42.109Z,71.63
2022-12-03T21:39:09.671Z,89.10
2022-12-03T21:41:37.132Z,86.63
2022-12-03T21:44:04.785Z,88.38
2022-12-03T21:47:09.406Z,92.50
2022-12-03T21:49:19.769Z,84.03
2022-12-03T21:51:47.113Z,83.35
2022-12-03T21:54:16.643Z,77.93
2022-12-03T21:56:44.059Z,102.50
2022-12-03T21:59:11.688Z,83.43
2022-12-03T22:01:44.028Z,68.88
2022-12-03T22:07:43.930Z,65.88
2022-12-03T22:10:11.880Z,79.30
2022-12-03T22:13:01.739Z,71.78
2022-12-03T22:15:29.381Z,69.97
2022-12-03T22:17:56.737Z,76.75
2022-12-03T22:20:24.460Z,69.05
2022-12-03T22:22:51.780Z,73.82
2022-12-03T22:25:19.371Z,65.03
2022-12-03T22:27:52.051Z,73.47
2022-12-03T22:30:19.755Z,74.75
2022-12-03T22:32:47.214Z,76.70
2022-12-03T22:35:14.912Z,70.90
2022-12-03T22:37:44.303Z,75.93
2022-12-03T22:40:12.179Z,77.07
2022-12-03T22:42:39.529Z,75.03
2022-12-03T22:45:07.327Z,78.00
2022-12-03T22:47:34.663Z,77.55
2022-12-03T22:50:02.235Z,72.40
2022-12-03T22:52:30.028Z,74.03
2022-12-03T22:54:57.645Z,66.00
2022-12-03T22:57:24.961Z,70.22
2022-12-03T22:59:52.831Z,69.57
2022-12-03T23:02:20.445Z,73.13
2022-12-03T23:04:48.099Z,67.60
2022-12-03T23:07:15.460Z,68.38
2022-12-03T23:09:43.089Z,71.57
2022-12-03T23:12:10.461Z,69.25
2022-12-03T23:14:38.081Z,74.22
2022-12-03T23:17:05.462Z,64.05
2022-12-03T23:19:33.149Z,69.18
2022-12-03T23:22:00.467Z,66.25
2022-12-03T23:24:28.123Z,70.57
2022-12-03T23:26:55.473Z,77.55
2022-12-03T23:29:23.144Z,70.25
2022-12-03T23:31:50.543Z,71.13
2022-12-03T23:34:18.317Z,72.80
2022-12-03T23:36:45.646Z,65.53
2022-12-03T23:39:13.279Z,62.53
2022-12-03T23:41:40.587Z,60.65
2022-12-03T23:44:08.157Z,67.35
2022-12-03T23:46:38.908Z,72.78
2022-12-03T23:49:06.618Z,67.13
2022-12-03T23:51:34.071Z,74.80
